Time;durP1;ratioP1;P1;durP2;ratioP2;P2;SDS_P1;SDS_P2;PMS_P1;PMS_P2;Temp;Humidity;BMP_temperature;BMP_pressure;BME280_temperature;BME280_humidity;BME280_pressure;Samples;Min_cycle;Max_cycle;Signal;HPM_P1;HPM_P2
2021/05/19 00:00:22;;;;;;;3.45;2.72;;;;;;;6.95;86.77;98567.78;5044112;28;20143;-65
2021/05/19 00:02:47;;;;;;;3.47;2.72;;;;;;;6.88;87.52;98568.69;5045876;28;20371;-65
2021/05/19 00:05:13;;;;;;;3.60;2.45;;;;;;;6.78;86.81;98572.25;5045787;28;20024;-65
2021/05/19 00:07:39;;;;;;;5.18;3.10;;;;;;;6.78;87.17;98564.41;5045762;28;20021;-65
2021/05/19 00:10:07;;;;;;;5.97;3.33;;;;;;;6.77;87.66;98560.03;5045733;28;20025;-65
2021/05/19 00:12:33;;;;;;;4.38;3.22;;;;;;;6.82;87.91;98567.84;5045660;28;20021;-65
2021/05/19 00:14:59;;;;;;;8.48;3.47;;;;;;;6.84;87.73;98568.72;5045582;28;20364;-65
2021/05/19 00:17:24;;;;;;;3.78;2.50;;;;;;;6.79;87.29;98567.84;5045552;28;20025;-65
2021/05/19 00:19:51;;;;;;;6.47;3.28;;;;;;;6.87;88.19;98566.97;5037624;28;20281;-65
2021/05/19 00:22:17;;;;;;;5.93;3.25;;;;;;;6.87;88.01;98572.19;5038168;28;20084;-65
2021/05/19 00:24:42;;;;;;;4.63;3.60;;;;;;;6.92;88.22;98570.41;5041692;28;20013;-65
2021/05/19 00:27:07;;;;;;;5.28;3.80;;;;;;;6.85;88.00;98553.00;5040528;28;20089;-65
2021/05/19 00:29:33;;;;;;;9.40;4.78;;;;;;;6.88;88.73;98568.69;5041701;28;20312;-65
2021/05/19 00:31:58;;;;;;;7.55;4.82;;;;;;;6.92;89.35;98559.94;5040468;28;20021;-65
2021/05/19 00:34:24;;;;;;;7.18;4.90;;;;;;;6.93;89.57;98573.91;5040385;28;20052;-65
2021/05/19 00:36:49;;;;;;;5.22;4.13;;;;;;;6.96;89.55;98571.25;5042030;28;20313;-65
2021/05/19 00:39:14;;;;;;;6.95;4.43;;;;;;;6.96;89.79;98566.88;5040420;28;20068;-65
2021/05/19 00:41:42;;;;;;;6.05;3.95;;;;;;;7.02;89.37;98569.47;5040864;28;20024;-65
2021/05/19 00:44:10;;;;;;;8.05;4.80;;;;;;;7.07;89.57;98570.31;5041526;28;20017;-65
2021/05/19 00:46:36;;;;;;;5.82;4.05;;;;;;;6.99;88.63;98574.72;5040611;28;20053;-65
2021/05/19 00:49:03;;;;;;;5.72;4.15;;;;;;;6.99;89.03;98574.72;5040192;28;20071;-65
2021/05/19 00:51:29;;;;;;;5.22;4.00;;;;;;;6.96;88.64;98561.66;5041752;28;20017;-65
2021/05/19 00:53:56;;;;;;;6.38;4.15;;;;;;;6.98;89.00;98565.13;5041689;28;20048;-65
2021/05/19 00:56:24;;;;;;;9.07;4.22;;;;;;;6.95;88.90;98570.38;5044730;28;20017;-65
2021/05/19 00:58:54;;;;;;;5.72;3.95;;;;;;;6.95;89.32;98567.78;5044577;28;20032;-65
2021/05/19 01:01:20;;;;;;;5.30;3.58;;;;;;;6.87;88.66;98572.19;5045098;28;20025;-65
2021/05/19 01:03:47;;;;;;;4.28;3.78;;;;;;;6.89;89.06;98570.41;5024292;22;20046;-90
2021/05/19 01:06:19;;;;;;;13.77;5.65;;;;;;;6.87;88.47;98569.59;5004050;28;20018;-90
2021/05/19 01:11:30;;;;;;;3.60;2.92;;;;;;;6.99;88.68;98568.63;5005344;28;20028;-90
2021/05/19 01:13:57;;;;;;;4.53;3.42;;;;;;;6.96;88.97;98559.03;4996019;28;20081;-90
2021/05/19 01:16:23;;;;;;;7.60;4.13;;;;;;;6.93;88.97;98555.59;4987923;28;20042;-90
2021/05/19 01:18:48;;;;;;;6.30;3.35;;;;;;;6.95;88.97;98559.91;4987300;28;20018;-90
2021/05/19 01:21:16;;;;;;;5.03;4.03;;;;;;;6.96;88.90;98566.88;4987867;28;20022;-90
2021/05/19 01:23:43;;;;;;;6.30;3.50;;;;;;;6.94;88.57;98558.19;4987223;28;20096;-90
2021/05/19 01:26:11;;;;;;;4.35;3.05;;;;;;;6.93;88.89;98561.66;4987614;28;20022;-90
2021/05/19 01:28:38;;;;;;;3.65;2.83;;;;;;;6.89;88.76;98559.09;4987685;28;20025;-90
2021/05/19 01:31:04;;;;;;;4.45;2.70;;;;;;;6.86;88.40;98565.19;4986976;28;20025;-90
2021/05/19 01:33:30;;;;;;;8.23;3.08;;;;;;;6.77;88.12;98554.78;4987986;28;20217;-90
2021/05/19 01:35:55;;;;;;;4.43;2.80;;;;;;;6.78;88.29;98573.97;4986780;28;20023;-90
2021/05/19 01:38:21;;;;;;;3.33;2.63;;;;;;;6.74;88.42;98565.25;5019650;28;20093;-90
2021/05/19 01:40:47;;;;;;;7.53;2.75;;;;;;;6.70;88.12;98560.94;4998426;28;20021;-90
2021/05/19 01:43:12;;;;;;;3.20;2.40;;;;;;;6.63;87.85;98561.84;4999057;28;20033;-90
2021/05/19 01:45:38;;;;;;;3.80;2.40;;;;;;;6.63;88.53;98561.84;4999256;28;20094;-90
2021/05/19 01:48:09;;;;;;;3.35;2.30;;;;;;;6.60;88.40;98562.75;5000468;28;20269;-90
2021/05/19 01:50:35;;;;;;;3.80;2.28;;;;;;;6.65;88.63;98570.56;5000289;28;20029;-91
2021/05/19 01:53:03;;;;;;;2.63;2.03;;;;;;;6.61;88.10;98568.81;5000313;28;20097;-90
2021/05/19 01:55:29;;;;;;;4.65;2.20;;;;;;;6.63;88.32;98569.69;5000236;28;20023;-90
2021/05/19 01:57:55;;;;;;;4.60;2.38;;;;;;;6.42;88.20;98567.16;4999062;28;20022;-90
2021/05/19 02:00:23;;;;;;;3.72;2.42;;;;;;;6.48;89.05;98577.59;4999096;28;20216;-90
2021/05/19 02:03:00;;;;;;;4.15;2.72;;;;;;;6.47;88.50;98570.66;5011126;28;20037;-90
2021/05/19 02:05:28;;;;;;;3.50;2.15;;;;;;;6.39;87.93;98575.03;5019585;28;20014;-90
2021/05/19 02:07:54;;;;;;;2.47;2.22;;;;;;;6.42;88.72;98580.22;5023267;28;20029;-90
2021/05/19 02:10:21;;;;;;;3.40;2.45;;;;;;;6.41;88.38;98581.13;5022951;28;20021;-90
2021/05/19 02:12:47;;;;;;;4.20;2.42;;;;;;;6.33;87.94;98577.69;5022982;28;20025;-90
2021/05/19 02:15:15;;;;;;;3.17;2.40;;;;;;;6.38;88.48;98575.91;5022869;28;20182;-90
2021/05/19 02:17:41;;;;;;;6.75;2.88;;;;;;;6.37;88.51;98579.41;5023269;28;20210;-90
2021/05/19 02:20:09;;;;;;;4.68;2.88;;;;;;;6.39;88.78;98573.28;5023235;28;20018;-90
2021/05/19 02:22:35;;;;;;;3.50;2.67;;;;;;;6.47;89.21;98570.66;5022887;28;20024;-90
2021/05/19 02:25:01;;;;;;;3.78;2.40;;;;;;;6.52;89.14;98574.13;5009617;28;20018;-90
2021/05/19 02:27:27;;;;;;;3.45;2.55;;;;;;;6.49;88.47;98584.59;5006461;28;20018;-90
2021/05/19 02:29:54;;;;;;;3.72;2.30;;;;;;;6.42;88.09;98577.63;5005692;28;20045;-90
2021/05/19 02:32:21;;;;;;;4.90;3.33;;;;;;;6.36;88.88;98577.69;5006858;28;20293;-90
2021/05/19 02:34:46;;;;;;;7.43;3.25;;;;;;;6.32;88.75;98575.91;5006289;28;20022;-90
2021/05/19 02:37:12;;;;;;;4.95;2.97;;;;;;;6.40;89.72;98575.00;5006171;28;20256;-90
2021/05/19 02:39:37;;;;;;;5.28;3.38;;;;;;;6.40;89.74;98574.16;5006121;28;20301;-90
2021/05/19 02:42:03;;;;;;;4.95;3.30;;;;;;;6.48;89.67;98577.59;5012719;28;20026;-90
2021/05/19 02:44:29;;;;;;;5.35;3.80;;;;;;;6.48;89.47;98577.59;5018365;28;20309;-90
2021/05/19 02:46:54;;;;;;;4.72;2.80;;;;;;;6.50;88.75;98575.88;5017309;28;20045;-90
2021/05/19 02:49:20;;;;;;;3.13;2.30;;;;;;;6.47;88.53;98576.75;5019450;28;20017;-90
2021/05/19 02:51:45;;;;;;;4.22;2.90;;;;;;;6.43;88.47;98564.53;5020064;28;20022;-90
2021/05/19 02:54:11;;;;;;;4.53;3.22;;;;;;;6.42;88.23;98583.72;5021858;28;20098;-90
2021/05/19 02:56:36;;;;;;;5.95;3.30;;;;;;;6.46;88.71;98576.75;5021724;28;20022;-90
2021/05/19 02:59:03;;;;;;;3.80;2.75;;;;;;;6.60;88.59;98572.31;5023494;28;20018;-90
2021/05/19 03:01:29;;;;;;;6.82;3.33;;;;;;;6.64;88.15;98580.16;5021496;28;20309;-90
2021/05/19 03:03:54;;;;;;;3.15;2.40;;;;;;;6.64;87.79;98580.16;5021118;28;20048;-90
2021/05/19 03:06:22;;;;;;;3.92;2.83;;;;;;;6.67;87.99;98574.03;5015599;28;20253;-90
2021/05/19 03:08:47;;;;;;;6.13;3.17;;;;;;;6.61;87.93;98580.16;5009028;28;20021;-90
2021/05/19 03:11:13;;;;;;;4.85;3.58;;;;;;;6.59;87.96;98581.06;5009731;28;20010;-90
2021/05/19 03:13:38;;;;;;;4.95;3.38;;;;;;;6.48;88.17;98583.72;5009739;28;20345;-90
2021/05/19 03:16:04;;;;;;;8.57;3.78;;;;;;;6.57;88.46;98588.03;5009855;28;20093;-90
2021/05/19 03:18:30;;;;;;;4.45;3.63;;;;;;;6.56;87.87;98588.91;5007308;28;20029;-90
2021/05/19 03:20:55;;;;;;;4.85;3.70;;;;;;;6.68;87.91;98596.72;5006443;28;20312;-90
2021/05/19 03:23:21;;;;;;;8.05;5.47;;;;;;;6.92;89.13;98596.56;5006166;28;20317;-90
2021/05/19 03:25:46;;;;;;;7.95;5.05;;;;;;;7.05;89.94;98603.47;5006341;28;20026;-89
2021/05/19 03:28:12;;;;;;;10.18;5.78;;;;;;;7.28;89.25;98598.94;5011957;28;20041;-89
2021/05/19 03:30:38;;;;;;;10.43;6.45;;;;;;;7.32;89.62;98595.44;5019644;28;20328;-90
2021/05/19 03:33:04;;;;;;;9.27;6.20;;;;;;;7.40;89.76;98598.88;5018146;28;20045;-90
2021/05/19 03:35:30;;;;;;;9.65;6.38;;;;;;;7.47;89.74;98600.53;5020747;28;20030;-90
2021/05/19 03:37:56;;;;;;;9.32;7.00;;;;;;;7.54;89.79;98594.41;5022541;28;20018;-90
2021/05/19 03:40:22;;;;;;;10.07;6.72;;;;;;;7.62;89.96;98597.81;5021054;28;20025;-90
2021/05/19 03:42:48;;;;;;;12.55;7.22;;;;;;;7.69;89.70;98596.88;5022239;28;20102;-90
2021/05/19 03:45:16;;;;;;;10.13;6.97;;;;;;;7.79;89.50;98600.31;5014723;28;20018;-90
2021/05/19 03:47:42;;;;;;;10.23;7.43;;;;;;;7.90;88.93;98599.31;5009017;28;20022;-92
2021/05/19 03:50:09;;;;;;;14.35;8.65;;;;;;;7.83;89.02;98604.63;5009177;28;20014;-90
2021/05/19 03:52:35;;;;;;;10.85;7.63;;;;;;;7.80;89.02;98602.91;5021085;28;20017;-89
2021/05/19 03:55:03;;;;;;;10.10;7.13;;;;;;;7.90;88.98;98599.31;5019401;28;20041;-89
2021/05/19 03:57:29;;;;;;;11.60;8.70;;;;;;;7.91;88.62;98608.91;5020666;28;20092;-90
2021/05/19 03:59:54;;;;;;;9.90;7.10;;;;;;;8.15;88.75;98621.78;5020669;28;20029;-90
2021/05/19 04:02:20;;;;;;;15.07;10.02;;;;;;;8.08;88.17;98617.50;5020956;28;20025;-89
2021/05/19 04:05:07;;;;;;;10.95;9.18;;;;;;;8.13;88.18;98613.06;5025168;28;20018;-90
2021/05/19 04:07:33;;;;;;;12.13;8.57;;;;;;;8.29;88.02;98619.91;5024091;28;20367;-90
2021/05/19 04:09:58;;;;;;;13.80;9.18;;;;;;;8.23;87.70;98604.25;5024027;28;20025;-90
2021/05/19 04:12:25;;;;;;;10.80;7.57;;;;;;;8.28;87.95;98618.19;5003944;28;20022;-90
2021/05/19 04:14:51;;;;;;;12.73;8.95;;;;;;;8.33;87.89;98621.59;5004084;28;20384;-90
2021/05/19 04:17:16;;;;;;;12.80;8.73;;;;;;;8.34;87.73;98612.88;5004467;28;20026;-90
2021/05/19 04:19:42;;;;;;;13.07;9.63;;;;;;;8.30;88.68;98611.19;5004463;28;20037;-90
2021/05/19 04:22:08;;;;;;;12.35;9.05;;;;;;;8.26;88.09;98611.22;5003525;28;20343;-90
2021/05/19 04:24:34;;;;;;;14.80;9.90;;;;;;;8.27;88.61;98616.47;5022522;28;20076;-89
2021/05/19 04:27:31;;;;;;;15.65;10.07;;;;;;;8.33;88.78;98620.75;5009913;28;20109;-92
2021/05/19 04:32:27;;;;;;;17.38;9.00;;;;;;;8.48;87.92;98626.69;5042939;28;20049;-64
2021/05/19 04:34:52;;;;;;;13.77;10.07;;;;;;;8.45;88.78;98621.47;5044220;28;20056;-63
2021/05/19 04:37:18;;;;;;;13.85;9.02;;;;;;;8.52;88.27;98631.00;5058115;28;20091;-63
2021/05/19 04:39:43;;;;;;;16.23;9.88;;;;;;;8.55;88.42;98625.72;5046374;28;20052;-66
2021/05/19 04:42:09;;;;;;;15.60;9.85;;;;;;;8.56;87.78;98624.88;5044641;28;20338;-66
2021/05/19 04:44:34;;;;;;;18.90;9.43;;;;;;;8.61;88.00;98630.91;5045074;28;20029;-66
2021/05/19 04:47:00;;;;;;;14.88;9.60;;;;;;;8.57;88.04;98629.22;5045039;28;20026;-66
2021/05/19 04:49:25;;;;;;;17.08;8.77;;;;;;;8.59;87.46;98629.19;5044999;28;20216;-66
2021/05/19 04:51:51;;;;;;;16.42;8.90;;;;;;;8.63;87.19;98631.78;5044961;28;20033;-66
2021/05/19 04:54:17;;;;;;;16.38;9.50;;;;;;;8.76;87.77;98630.75;5044865;28;20140;-66
2021/05/19 04:56:42;;;;;;;17.88;10.55;;;;;;;8.76;87.83;98635.97;5045046;28;20316;-66
2021/05/19 04:59:08;;;;;;;20.10;12.43;;;;;;;8.88;87.34;98647.19;5044858;28;20063;-66
2021/05/19 05:01:34;;;;;;;19.42;12.00;;;;;;;8.88;87.29;98641.94;5044804;28;20084;-66
2021/05/19 05:03:59;;;;;;;19.25;12.75;;;;;;;8.88;87.59;98641.94;5044696;28;20071;-66
2021/05/19 05:06:25;;;;;;;18.40;11.02;;;;;;;8.92;87.40;98638.44;5044688;28;20085;-66
2021/05/19 05:08:50;;;;;;;23.48;14.02;;;;;;;8.94;87.61;98645.38;5044657;28;20036;-66
2021/05/19 05:11:16;;;;;;;17.02;10.07;;;;;;;9.00;86.84;98641.81;5044604;28;20029;-66
2021/05/19 05:13:41;;;;;;;19.95;11.15;;;;;;;9.03;87.07;98647.03;5044660;28;20025;-66
2021/05/19 05:16:07;;;;;;;19.80;12.57;;;;;;;9.08;87.37;98650.47;5044444;28;20026;-66
2021/05/19 05:18:37;;;;;;;21.60;13.45;;;;;;;9.17;87.10;98650.34;5044441;28;20135;-66
2021/05/19 05:21:04;;;;;;;17.90;12.25;;;;;;;9.22;86.63;98648.50;5044508;28;20032;-64
2021/05/19 05:23:30;;;;;;;15.82;10.48;;;;;;;9.33;85.97;98642.22;5044363;28;20075;-64
2021/05/19 05:25:56;;;;;;;17.23;12.13;;;;;;;9.20;86.18;98645.06;5044339;28;20021;-64
2021/05/19 05:28:21;;;;;;;15.30;9.40;;;;;;;9.23;87.10;98652.84;5044305;28;20087;-64
2021/05/19 05:30:48;;;;;;;18.15;10.82;;;;;;;9.25;87.06;98657.22;5044116;28;20348;-64
2021/05/19 05:33:13;;;;;;;16.27;10.85;;;;;;;9.20;85.89;98651.16;5044263;28;20339;-63
2021/05/19 05:35:39;;;;;;;17.55;11.00;;;;;;;9.30;87.12;98662.41;5044146;28;20033;-63
2021/05/19 05:38:04;;;;;;;16.50;10.15;;;;;;;9.35;86.80;98660.56;5044133;28;20308;-63
2021/05/19 05:40:30;;;;;;;15.60;9.13;;;;;;;9.35;86.83;98655.31;5044205;28;20088;-64
2021/05/19 05:42:55;;;;;;;12.73;8.55;;;;;;;9.37;86.21;98664.06;5044057;28;20032;-64
2021/05/19 05:45:20;;;;;;;12.18;6.50;;;;;;;9.50;86.17;98660.38;5044057;28;20025;-64
2021/05/19 05:47:46;;;;;;;7.47;5.80;;;;;;;9.62;85.15;98660.19;5044075;28;20045;-64
2021/05/19 05:50:12;;;;;;;9.73;6.28;;;;;;;9.65;84.37;98661.00;5044247;28;20029;-63
2021/05/19 05:52:38;;;;;;;13.80;6.88;;;;;;;9.66;84.63;98668.00;5044023;28;20056;-63
2021/05/19 05:55:04;;;;;;;9.82;6.70;;;;;;;9.67;85.30;98668.84;5044160;28;20026;-63
2021/05/19 05:57:31;;;;;;;7.45;5.45;;;;;;;9.67;85.19;98674.09;5043930;28;20036;-64
2021/05/19 05:59:56;;;;;;;8.05;5.88;;;;;;;9.66;84.98;98677.63;5044166;28;20021;-64
2021/05/19 06:02:22;;;;;;;8.52;6.38;;;;;;;9.67;84.76;98674.09;5043828;28;20021;-64
2021/05/19 06:04:47;;;;;;;9.82;6.47;;;;;;;9.63;84.89;98682.94;5043867;28;20044;-64
2021/05/19 06:07:12;;;;;;;8.23;5.95;;;;;;;9.67;84.66;98679.38;5043868;28;20025;-63
2021/05/19 06:09:38;;;;;;;11.02;5.60;;;;;;;9.66;84.85;98682.91;5043859;28;20060;-63
2021/05/19 06:12:04;;;;;;;10.52;7.07;;;;;;;9.65;84.37;98687.28;5044016;28;20029;-63
2021/05/19 06:14:29;;;;;;;10.75;7.35;;;;;;;9.72;84.86;98688.94;5043745;28;20216;-64
2021/05/19 06:16:56;;;;;;;10.30;7.00;;;;;;;9.64;84.63;98692.56;5043766;28;20201;-64
2021/05/19 06:19:21;;;;;;;11.77;7.30;;;;;;;9.67;85.32;98701.28;5043684;28;20092;-64
2021/05/19 06:21:47;;;;;;;7.47;6.25;;;;;;;9.70;84.73;98695.09;5043957;28;20052;-64
2021/05/19 06:24:12;;;;;;;9.32;6.00;;;;;;;9.77;84.71;98701.97;5043725;28;20052;-64
2021/05/19 06:26:38;;;;;;;8.50;6.15;;;;;;;9.79;83.72;98690.59;5045718;28;20032;-63
2021/05/19 06:29:03;;;;;;;8.43;5.88;;;;;;;9.75;84.17;98682.75;5047923;28;20071;-64
2021/05/19 06:31:29;;;;;;;8.50;5.55;;;;;;;9.91;83.91;98700.03;5047437;28;20092;-64
2021/05/19 06:33:54;;;;;;;10.07;5.78;;;;;;;9.97;83.45;98695.53;5047558;28;20197;-64
2021/05/19 06:36:20;;;;;;;7.22;5.65;;;;;;;10.04;83.49;98701.56;5047483;28;20265;-64
2021/05/19 06:38:45;;;;;;;8.63;5.47;;;;;;;10.08;83.60;98703.28;5047486;28;20052;-64
2021/05/19 06:41:11;;;;;;;8.77;5.45;;;;;;;10.07;83.74;98698.94;5047459;28;20343;-64
2021/05/19 06:43:36;;;;;;;9.35;6.57;;;;;;;10.06;82.92;98702.44;5047389;28;20302;-64
2021/05/19 06:46:02;;;;;;;9.30;6.45;;;;;;;10.09;83.45;98705.00;5047345;28;20092;-64
2021/05/19 06:48:27;;;;;;;7.07;5.43;;;;;;;10.18;82.28;98711.00;5047260;28;20017;-64
2021/05/19 06:50:53;;;;;;;9.57;5.40;;;;;;;10.32;81.58;98713.41;5047232;28;20032;-64
2021/05/19 06:53:18;;;;;;;8.50;5.70;;;;;;;10.59;81.33;98712.91;5047219;28;20028;-64
2021/05/19 06:55:48;;;;;;;10.98;5.15;;;;;;;11.24;80.31;98720.41;5047080;28;20017;-64
2021/05/19 06:58:14;;;;;;;6.13;4.72;;;;;;;11.37;79.75;98727.16;5045923;28;20031;-64
2021/05/19 07:00:39;;;;;;;6.93;4.80;;;;;;;11.42;78.72;98725.28;5047115;28;20052;-64
2021/05/19 07:03:05;;;;;;;5.22;3.72;;;;;;;11.47;77.32;98723.44;5047025;28;20029;-64
2021/05/19 07:05:30;;;;;;;7.30;4.45;;;;;;;11.43;77.62;98719.13;5047031;28;20370;-64
2021/05/19 07:07:55;;;;;;;7.22;4.03;;;;;;;11.52;77.22;98716.28;5046882;28;20051;-64
2021/05/19 07:10:21;;;;;;;7.03;4.68;;;;;;;11.58;76.42;98715.31;5046832;28;20031;-64
2021/05/19 07:12:46;;;;;;;6.45;4.47;;;;;;;12.26;75.19;98717.22;5046829;28;20097;-64
2021/05/19 07:15:14;;;;;;;6.55;3.70;;;;;;;12.17;73.31;98715.69;5046702;28;20108;-64
2021/05/19 07:17:40;;;;;;;7.40;3.80;;;;;;;12.13;73.94;98721.06;5046994;28;20320;-64
2021/05/19 07:20:08;;;;;;;6.22;3.97;;;;;;;13.14;74.69;98721.06;5046723;28;20116;-64
2021/05/19 07:22:34;;;;;;;7.28;4.07;;;;;;;13.61;68.93;98725.84;5046604;28;20031;-64
2021/05/19 07:24:59;;;;;;;4.47;3.35;;;;;;;13.60;68.63;98727.59;5046617;28;20041;-64
2021/05/19 07:27:25;;;;;;;4.07;3.20;;;;;;;13.14;68.54;98731.63;5046557;28;20379;-64
2021/05/19 07:29:50;;;;;;;5.43;3.35;;;;;;;13.80;67.16;98729.66;5046792;28;20017;-64
2021/05/19 07:32:16;;;;;;;6.70;3.50;;;;;;;15.28;65.10;98731.66;5046355;28;20061;-64
2021/05/19 07:34:41;;;;;;;8.30;3.60;;;;;;;16.05;61.38;98724.31;5046447;28;20021;-64
2021/05/19 07:37:06;;;;;;;5.70;3.35;;;;;;;16.72;59.58;98720.63;5045713;28;20021;-64
2021/05/19 07:39:32;;;;;;;5.53;2.90;;;;;;;17.36;58.22;98717.78;5045791;28;20021;-64
2021/05/19 07:41:58;;;;;;;4.65;3.00;;;;;;;17.88;55.82;98722.50;5046279;28;20339;-64
2021/05/19 07:44:23;;;;;;;3.53;2.47;;;;;;;17.64;55.96;98734.28;5046511;28;20052;-64
2021/05/19 07:46:49;;;;;;;5.50;3.20;;;;;;;17.24;54.96;98732.50;5046217;28;20248;-64
2021/05/19 07:49:15;;;;;;;4.78;2.50;;;;;;;16.94;58.67;98736.53;5046169;28;20017;-64
2021/05/19 07:51:41;;;;;;;4.68;2.80;;;;;;;18.08;52.81;98725.06;5046372;28;20017;-64
2021/05/19 07:54:08;;;;;;;6.53;2.90;;;;;;;18.64;50.13;98731.22;5046073;28;20058;-64
2021/05/19 07:56:42;;;;;;;4.90;2.90;;;;;;;17.89;53.30;98724.22;5044831;28;20025;-64
2021/05/19 07:59:10;;;;;;;4.60;2.67;;;;;;;17.41;54.09;98719.34;5046065;28;20021;-64
2021/05/19 08:04:04;;;;;;;6.53;3.53;;;;;;;17.99;55.54;98730.84;5046100;28;20033;-64
2021/05/19 08:06:29;;;;;;;5.85;3.45;;;;;;;18.26;52.44;98732.19;5045870;28;20045;-64
2021/05/19 08:08:55;;;;;;;4.15;3.13;;;;;;;19.00;51.98;98740.00;5045804;28;20386;-64
2021/05/19 08:11:20;;;;;;;4.18;3.33;;;;;;;19.88;49.07;98729.03;5045991;28;20045;-64
2021/05/19 08:13:48;;;;;;;5.03;3.50;;;;;;;20.32;47.95;98731.91;5045704;28;20025;-64
2021/05/19 08:16:15;;;;;;;9.20;3.50;;;;;;;20.65;45.80;98730.84;5045614;28;20055;-64
2021/05/19 08:18:41;;;;;;;6.75;3.88;;;;;;;20.67;46.50;98720.06;5045604;28;20080;-64
2021/05/19 08:21:07;;;;;;;5.78;4.03;;;;;;;20.19;47.88;98721.03;5045583;28;20025;-64
2021/05/19 08:23:33;;;;;;;6.00;4.35;;;;;;;19.97;47.58;98725.84;5045585;28;20030;-64
2021/05/19 08:26:00;;;;;;;6.00;4.15;;;;;;;20.48;45.83;98728.28;5045735;28;20028;-64
2021/05/19 08:28:25;;;;;;;4.45;3.10;;;;;;;20.63;44.40;98727.38;5045447;28;20029;-64
2021/05/19 08:30:51;;;;;;;6.85;4.28;;;;;;;21.05;44.68;98727.59;5045251;28;20095;-64
2021/05/19 08:33:17;;;;;;;7.03;4.45;;;;;;;21.26;43.83;98723.59;5045365;28;20052;-64
2021/05/19 08:35:42;;;;;;;6.63;4.70;;;;;;;21.79;44.22;98727.47;5045264;28;20036;-64
2021/05/19 08:38:08;;;;;;;7.70;3.70;;;;;;;21.46;45.46;98714.34;5045218;28;20319;-64
2021/05/19 08:40:34;;;;;;;7.72;4.10;;;;;;;22.25;43.10;98715.56;5045221;28;20021;-65
2021/05/19 08:43:00;;;;;;;7.68;3.58;;;;;;;22.34;41.22;98714.94;5045186;28;20048;-65
2021/05/19 08:45:25;;;;;;;3.75;2.80;;;;;;;22.06;44.07;98715.88;5045136;28;20025;-65
2021/05/19 08:48:03;;;;;;;4.90;3.17;;;;;;;21.97;39.92;98712.91;5045120;28;20219;-65
2021/05/19 08:50:33;;;;;;;6.55;3.13;;;;;;;21.51;45.37;98706.88;5044659;28;20025;-65
2021/05/19 08:53:00;;;;;;;5.85;3.17;;;;;;;22.20;42.69;98706.94;5044978;28;20033;-65
2021/05/19 08:55:26;;;;;;;5.22;2.25;;;;;;;21.93;39.98;98698.00;5045087;28;20028;-65
2021/05/19 08:57:52;;;;;;;6.15;2.38;;;;;;;22.11;39.30;98702.19;5044897;28;20021;-65
2021/05/19 09:00:18;;;;;;;3.60;2.47;;;;;;;22.30;39.90;98698.19;5044854;28;20335;-65
2021/05/19 09:03:10;;;;;;;3.83;2.05;;;;;;;22.10;42.94;98695.09;5044669;28;20022;-65
2021/05/19 09:05:38;;;;;;;5.00;2.20;;;;;;;22.03;39.61;98696.44;5044754;28;20025;-65
2021/05/19 09:08:11;;;;;;;3.95;2.03;;;;;;;22.12;42.34;98690.50;5044626;28;20257;-65
2021/05/19 09:10:38;;;;;;;4.63;2.00;;;;;;;22.05;42.15;98683.81;5044726;28;20080;-65
2021/05/19 09:13:04;;;;;;;3.55;1.80;;;;;;;23.04;38.27;98686.00;5044679;28;20025;-65
2021/05/19 09:15:47;;;;;;;3.63;1.80;;;;;;;23.05;38.24;98681.50;5044478;28;20045;-65
2021/05/19 09:18:12;;;;;;;4.78;2.13;;;;;;;22.74;38.91;98676.47;5044582;28;20251;-65
2021/05/19 09:20:52;;;;;;;5.80;2.20;;;;;;;22.75;39.26;98672.84;5044741;28;20029;-65
2021/05/19 09:23:22;;;;;;;2.90;1.48;;;;;;;22.56;38.34;98672.38;5044439;28;20177;-65
2021/05/19 09:26:05;;;;;;;5.25;1.60;;;;;;;23.35;37.02;98668.66;5044308;28;20032;-65
2021/05/19 09:28:31;;;;;;;6.68;1.70;;;;;;;23.08;37.76;98660.66;5044594;28;20386;-65
2021/05/19 09:30:57;;;;;;;4.50;1.80;;;;;;;23.21;38.17;98655.28;5044143;28;20096;-65
2021/05/19 09:33:26;;;;;;;1.85;1.40;;;;;;;23.09;37.85;98650.78;5044264;28;20033;-65
2021/05/19 09:36:10;;;;;;;2.78;1.13;;;;;;;22.68;37.71;98650.94;5044072;28;20052;-65
2021/05/19 09:38:35;;;;;;;6.57;1.40;;;;;;;22.31;40.39;98645.44;5044166;28;20026;-65
2021/05/19 09:41:26;;;;;;;5.10;1.50;;;;;;;22.97;35.66;98640.91;5044188;28;20070;-65
2021/05/19 09:43:57;;;;;;;4.00;1.25;;;;;;;21.57;38.10;98639.53;5044164;28;20028;-65
2021/05/19 09:46:34;;;;;;;2.85;1.20;;;;;;;20.94;40.71;98636.34;5044161;28;20028;-65
2021/05/19 09:49:12;;;;;;;3.75;1.08;;;;;;;21.10;39.69;98629.13;5044172;28;20033;-64
2021/05/19 09:51:38;;;;;;;2.20;0.93;;;;;;;20.95;41.69;98627.38;5044025;28;20128;-64
2021/05/19 09:54:03;;;;;;;1.80;0.90;;;;;;;21.54;41.64;98623.66;5044004;28;20096;-64
2021/05/19 09:56:29;;;;;;;4.55;1.33;;;;;;;21.82;38.73;98628.13;5044164;28;20300;-64
2021/05/19 09:58:54;;;;;;;6.07;1.63;;;;;;;21.35;39.55;98624.94;5043906;28;20060;-64
2021/05/19 10:01:21;;;;;;;3.58;1.17;;;;;;;22.16;37.74;98619.63;5043144;28;20075;-64
2021/05/19 10:03:46;;;;;;;7.28;1.52;;;;;;;22.46;38.17;98615.75;5043816;28;20092;-64
2021/05/19 10:06:29;;;;;;;4.88;1.30;;;;;;;21.65;39.94;98612.25;5043862;28;20067;-64
2021/05/19 10:08:54;;;;;;;3.50;0.88;;;;;;;21.17;40.68;98601.00;5043862;28;20022;-64
2021/05/19 10:11:20;;;;;;;7.03;1.65;;;;;;;21.68;39.31;98601.34;5043763;28;20067;-64
2021/05/19 10:13:46;;;;;;;5.05;1.45;;;;;;;22.37;40.29;98604.78;5043779;28;20033;-64
2021/05/19 10:16:16;;;;;;;3.88;1.30;;;;;;;22.22;38.97;98598.63;5043683;28;20025;-64
2021/05/19 10:18:48;;;;;;;2.38;0.90;;;;;;;22.20;40.20;98599.69;5044042;28;20025;-64
2021/05/19 10:21:15;;;;;;;3.42;1.02;;;;;;;22.46;38.36;98586.25;5043982;28;20203;-64
2021/05/19 10:24:01;;;;;;;4.45;1.05;;;;;;;22.30;38.26;98584.72;5043775;28;20033;-64
2021/05/19 10:26:26;;;;;;;3.47;1.02;;;;;;;21.82;39.72;98587.94;5043755;28;20028;-64
2021/05/19 10:28:51;;;;;;;2.38;0.73;;;;;;;22.32;38.91;98588.13;5043680;28;20021;-64
2021/05/19 10:31:30;;;;;;;5.53;1.10;;;;;;;22.45;39.00;98589.03;5043433;28;20332;-64
2021/05/19 10:33:58;;;;;;;2.65;1.15;;;;;;;22.31;37.27;98589.09;5043868;28;20025;-64
2021/05/19 10:36:23;;;;;;;3.40;1.02;;;;;;;21.56;38.12;98586.94;5043538;28;20316;-64
2021/05/19 10:39:11;;;;;;;3.55;0.90;;;;;;;21.18;40.09;98580.47;5043607;28;20032;-64
2021/05/19 10:41:44;;;;;;;3.92;1.30;;;;;;;21.20;38.44;98573.19;5043439;28;20256;-64
2021/05/19 10:44:28;;;;;;;2.65;1.10;;;;;;;21.89;42.30;98573.19;5043501;28;20021;-64
2021/05/19 10:47:08;;;;;;;4.90;1.02;;;;;;;22.88;39.55;98571.75;5043539;28;20241;-64
2021/05/19 10:49:42;;;;;;;4.35;1.00;;;;;;;22.83;38.32;98568.50;5043509;28;20028;-64
2021/05/19 10:52:20;;;;;;;2.45;0.90;;;;;;;23.18;36.47;98574.94;5043444;28;20063;-64
2021/05/19 10:57:49;;;;;;;4.50;1.10;;;;;;;21.60;37.43;98560.78;5043446;28;20103;-64
2021/05/19 11:00:24;;;;;;;5.47;1.10;;;;;;;21.11;40.04;98563.91;5043376;28;20025;-64
2021/05/19 11:02:52;;;;;;;4.05;1.00;;;;;;;21.99;39.61;98569.78;5043560;28;20055;-64
2021/05/19 11:05:18;;;;;;;4.40;1.20;;;;;;;21.35;38.01;98566.03;5043302;28;20037;-64
2021/05/19 11:08:08;;;;;;;4.90;1.02;;;;;;;20.16;38.00;98560.88;5043333;28;20067;-64
2021/05/19 11:10:35;;;;;;;5.35;0.80;;;;;;;19.87;41.70;98567.00;5043336;28;20064;-64
2021/05/19 11:13:01;;;;;;;4.63;0.75;;;;;;;20.10;43.06;98566.56;5045490;28;20021;-64
2021/05/19 11:15:42;;;;;;;4.07;0.95;;;;;;;19.87;44.72;98567.00;5046745;28;20028;-64
2021/05/19 11:21:20;;;;;;;1.83;0.70;;;;;;;18.91;45.13;98601.78;5046801;28;20208;-64
2021/05/19 11:24:14;;;;;;;4.45;0.80;;;;;;;17.72;48.26;98625.66;5046712;28;20025;-64
2021/05/19 11:26:41;;;;;;;5.85;0.90;;;;;;;16.73;49.83;98636.44;5046674;28;20028;-64
2021/05/19 11:29:08;;;;;;;3.58;0.60;;;;;;;16.01;54.92;98653.66;5046832;28;20066;-64
2021/05/19 11:31:45;;;;;;;8.07;0.80;;;;;;;15.27;56.32;98666.31;5046323;28;20042;-64
2021/05/19 11:34:12;;;;;;;6.88;0.80;;;;;;;14.28;59.25;98669.88;5046550;28;20032;-64
2021/05/19 11:36:42;;;;;;;3.95;0.60;;;;;;;13.64;61.83;98665.75;5046367;28;20029;-64
2021/05/19 11:39:31;;;;;;;5.00;0.60;;;;;;;13.23;63.08;98673.22;5046634;28;20025;-64
2021/05/19 11:42:29;;;;;;;3.35;0.70;;;;;;;12.97;65.89;98674.78;5046343;28;20024;-64
2021/05/19 11:45:01;;;;;;;3.28;0.95;;;;;;;12.87;67.71;98689.19;5046325;28;20096;-64
2021/05/19 11:47:33;;;;;;;3.47;0.60;;;;;;;12.93;68.98;98675.81;5046570;28;20091;-64
2021/05/19 11:50:24;;;;;;;1.52;0.50;;;;;;;12.98;68.57;98679.16;5046196;28;20071;-64
2021/05/19 11:52:56;;;;;;;2.33;0.52;;;;;;;12.93;68.57;98678.44;5046197;28;20018;-64